Time;durP1;ratioP1;P1;durP2;ratioP2;P2;SDS_P1;SDS_P2;PMS_P1;PMS_P2;Temp;Humidity;BMP_temperature;BMP_pressure;BME280_temperature;BME280_humidity;BME280_pressure;Samples;Min_cycle;Max_cycle;Signal;HPM_P1;HPM_P2
2023/10/15 00:02:00;;;;;;;9.73;5.18;;;;;;;11.45;100.00;94501.66;5007356;28;20057;-78
2023/10/15 00:04:26;;;;;;;8.95;5.53;;;;;;;11.36;100.00;94495.00;4994392;28;20090;-77
2023/10/15 00:06:52;;;;;;;9.57;5.57;;;;;;;11.51;100.00;94493.13;5007331;28;20675;-78
2023/10/15 00:09:17;;;;;;;7.90;5.50;;;;;;;11.40;100.00;94485.03;5008280;28;20096;-78
2023/10/15 00:11:43;;;;;;;7.57;5.38;;;;;;;11.44;100.00;94488.88;5015428;28;20383;-78
2023/10/15 00:14:08;;;;;;;9.35;5.47;;;;;;;11.38;100.00;94489.63;5009580;28;20083;-77
2023/10/15 00:16:34;;;;;;;10.85;5.47;;;;;;;11.45;100.00;94490.50;5006346;28;20034;-78
2023/10/15 00:19:17;;;;;;;10.57;5.47;;;;;;;11.34;100.00;94489.19;5007614;28;20042;-78
2023/10/15 00:21:43;;;;;;;10.30;5.65;;;;;;;11.33;100.00;94482.44;5008643;28;20018;-78
2023/10/15 00:24:10;;;;;;;10.55;5.90;;;;;;;11.17;100.00;94490.47;5018105;28;20025;-78
2023/10/15 00:26:38;;;;;;;7.25;5.45;;;;;;;11.19;100.00;94485.88;5011479;28;20477;-78
2023/10/15 00:29:07;;;;;;;8.23;6.00;;;;;;;11.31;100.00;94493.94;4990315;28;20109;-79
2023/10/15 00:31:33;;;;;;;8.10;5.43;;;;;;;11.18;100.00;94494.63;5009764;28;20036;-78
2023/10/15 00:33:59;;;;;;;10.10;5.90;;;;;;;11.14;100.00;94496.00;5016354;28;20068;-78
2023/10/15 00:36:26;;;;;;;8.68;5.80;;;;;;;11.00;100.00;94489.91;4994688;28;20501;-78
2023/10/15 00:38:52;;;;;;;10.13;6.38;;;;;;;11.06;100.00;94481.38;4993567;28;20026;-77
2023/10/15 00:41:17;;;;;;;7.05;5.95;;;;;;;10.94;100.00;94485.47;5008384;28;20045;-80
2023/10/15 00:43:59;;;;;;;8.82;6.18;;;;;;;10.84;100.00;94484.94;4990396;28;20056;-77
2023/10/15 00:46:27;;;;;;;9.48;6.03;;;;;;;11.00;100.00;94479.53;5006996;28;20048;-78
2023/10/15 00:48:56;;;;;;;8.63;5.20;;;;;;;10.96;100.00;94478.28;4993354;28;20448;-78
2023/10/15 00:51:22;;;;;;;19.42;5.47;;;;;;;10.79;100.00;94484.69;5009218;28;20088;-78
2023/10/15 00:53:53;;;;;;;10.60;5.95;;;;;;;10.79;100.00;94479.50;4994142;28;20074;-79
2023/10/15 00:56:25;;;;;;;14.88;5.95;;;;;;;10.83;100.00;94477.34;4992947;28;20057;-77
2023/10/15 01:03:48;;;;;;;11.55;6.10;;;;;;;10.73;100.00;94477.66;4988342;28;20495;-78
2023/10/15 01:06:15;;;;;;;11.55;6.03;;;;;;;10.68;100.00;94477.41;4993117;28;20034;-78
2023/10/15 01:08:42;;;;;;;9.32;5.20;;;;;;;10.65;100.00;94477.78;5006568;28;20037;-76
2023/10/15 01:11:09;;;;;;;7.93;5.88;;;;;;;10.85;100.00;94471.00;5007502;28;20580;-78
2023/10/15 01:13:35;;;;;;;12.98;5.60;;;;;;;10.71;100.00;94477.03;4992941;28;20487;-78
2023/10/15 01:16:03;;;;;;;10.10;5.97;;;;;;;10.86;100.00;94472.59;5004025;28;20337;-78
2023/10/15 01:18:29;;;;;;;6.75;5.70;;;;;;;10.86;100.00;94476.97;5003027;28;20042;-78
2023/10/15 01:20:55;;;;;;;11.10;5.97;;;;;;;10.84;100.00;94477.19;5011029;28;20122;-77
2023/10/15 01:23:37;;;;;;;10.70;6.15;;;;;;;10.87;100.00;94476.81;5006915;28;20026;-77
2023/10/15 01:26:12;;;;;;;10.70;6.15;;;;;;;10.74;100.00;94478.44;5001559;28;20124;-78
2023/10/15 01:28:37;;;;;;;12.63;7.20;;;;;;;10.52;100.00;94477.63;5009959;28;20077;-79
2023/10/15 01:31:06;;;;;;;10.75;5.97;;;;;;;10.53;100.00;94474.84;5010823;28;20028;-78
2023/10/15 01:33:45;;;;;;;10.13;6.18;;;;;;;10.53;100.00;94468.88;4990180;28;20136;-78
2023/10/15 01:36:29;;;;;;;7.35;6.03;;;;;;;10.49;100.00;94475.41;4993295;28;20040;-79
2023/10/15 01:38:56;;;;;;;11.00;6.22;;;;;;;10.56;100.00;94469.28;4991397;28;20411;-78
2023/10/15 01:41:25;;;;;;;9.43;5.97;;;;;;;10.68;100.00;94471.41;4988350;28;20037;-77
2023/10/15 01:43:56;;;;;;;11.05;6.18;;;;;;;10.70;100.00;94470.25;5004394;28;20492;-78
2023/10/15 01:49:08;;;;;;;13.57;5.93;;;;;;;10.50;100.00;94462.25;4990392;28;20400;-77
2023/10/15 01:51:39;;;;;;;11.15;6.00;;;;;;;10.62;100.00;94462.59;4985904;28;20447;-77
2023/10/15 01:54:09;;;;;;;14.07;6.57;;;;;;;10.74;100.00;94463.72;4987495;28;20132;-77
2023/10/15 01:56:36;;;;;;;9.88;6.40;;;;;;;10.79;100.00;94458.78;4985787;28;20337;-77
2023/10/15 01:59:07;;;;;;;13.75;6.50;;;;;;;10.72;100.00;94455.34;4990121;28;20087;-77
2023/10/15 02:01:37;;;;;;;10.98;5.35;;;;;;;10.63;100.00;94453.81;5004943;28;20034;-77
2023/10/15 02:04:05;;;;;;;8.15;6.18;;;;;;;10.78;100.00;94462.38;4986009;28;20442;-77
2023/10/15 02:06:42;;;;;;;9.88;5.78;;;;;;;10.80;100.00;94459.59;5004398;28;20034;-78
2023/10/15 02:09:11;;;;;;;9.52;5.97;;;;;;;10.70;100.00;94453.91;5002444;28;20037;-77
2023/10/15 02:11:43;;;;;;;12.07;6.93;;;;;;;10.78;100.00;94453.81;4987733;28;20589;-77
2023/10/15 02:14:09;;;;;;;11.13;6.95;;;;;;;10.66;100.00;94448.28;5004883;28;20644;-77
2023/10/15 02:16:37;;;;;;;7.72;5.72;;;;;;;10.52;100.00;94449.16;5004264;28;20465;-77
2023/10/15 02:19:07;;;;;;;8.63;6.05;;;;;;;10.40;100.00;94456.56;5006824;28;20356;-78
2023/10/15 02:21:34;;;;;;;11.32;6.57;;;;;;;10.44;100.00;94464.78;4986164;28;20522;-77
2023/10/15 02:24:08;;;;;;;10.52;6.72;;;;;;;10.36;100.00;94462.31;4987176;28;20026;-78
2023/10/15 02:26:35;;;;;;;16.00;6.53;;;;;;;10.38;100.00;94470.69;4985710;28;20032;-77
2023/10/15 02:29:07;;;;;;;9.15;6.40;;;;;;;10.33;100.00;94467.84;5010969;28;20029;-78
2023/10/15 02:31:42;;;;;;;13.75;7.47;;;;;;;10.25;100.00;94462.75;5005723;28;20065;-77
2023/10/15 02:34:14;;;;;;;8.90;6.22;;;;;;;10.10;100.00;94462.75;5003782;28;20373;-77
2023/10/15 02:36:41;;;;;;;10.05;7.65;;;;;;;10.06;100.00;94467.47;4980477;28;20049;-77
2023/10/15 02:39:07;;;;;;;9.73;6.30;;;;;;;10.04;100.00;94469.44;4984485;28;20034;-77
2023/10/15 02:41:40;;;;;;;9.98;6.38;;;;;;;10.14;100.00;94463.22;5003617;28;20033;-77
2023/10/15 02:44:12;;;;;;;15.90;6.85;;;;;;;9.99;100.00;94465.78;5001937;28;20026;-78
2023/10/15 02:46:50;;;;;;;8.90;6.65;;;;;;;10.03;100.00;94474.78;4988251;28;20026;-77
2023/10/15 02:49:16;;;;;;;9.25;6.80;;;;;;;10.18;100.00;94469.66;5008055;28;20072;-77
2023/10/15 02:51:42;;;;;;;11.02;7.63;;;;;;;10.20;100.00;94472.84;4987487;28;20029;-77
2023/10/15 02:56:56;;;;;;;8.23;6.40;;;;;;;10.03;100.00;94477.38;4990129;28;20381;-77
2023/10/15 02:59:22;;;;;;;8.43;6.75;;;;;;;9.81;100.00;94468.72;5006845;28;20475;-77
2023/10/15 03:01:53;;;;;;;11.30;6.75;;;;;;;9.92;100.00;94476.03;5004601;28;20491;-77
2023/10/15 03:04:32;;;;;;;11.30;6.93;;;;;;;10.01;100.00;94476.78;4988363;28;20289;-77
2023/10/15 03:07:16;;;;;;;7.45;6.50;;;;;;;10.04;100.00;94479.00;5006167;28;20041;-77
2023/10/15 03:09:43;;;;;;;7.90;7.20;;;;;;;10.05;100.00;94471.03;5004646;28;20088;-77
2023/10/15 03:12:09;;;;;;;10.30;6.65;;;;;;;10.07;100.00;94473.47;5006250;28;20018;-77
2023/10/15 03:14:34;;;;;;;12.50;6.93;;;;;;;9.99;100.00;94478.72;5004550;28;20033;-77
2023/10/15 03:16:59;;;;;;;7.93;6.47;;;;;;;10.09;100.00;94476.66;5005911;28;20452;-77
2023/10/15 03:19:25;;;;;;;9.98;6.78;;;;;;;10.16;100.00;94479.38;5007795;28;20117;-77
2023/10/15 03:21:56;;;;;;;8.88;6.32;;;;;;;10.20;100.00;94483.22;5005058;28;20092;-77
2023/10/15 03:24:22;;;;;;;8.45;6.53;;;;;;;10.07;100.00;94479.44;5006502;28;20073;-78
2023/10/15 03:26:48;;;;;;;10.68;7.43;;;;;;;9.49;100.00;94484.56;5006363;28;20045;-78
2023/10/15 03:29:13;;;;;;;8.77;7.30;;;;;;;9.20;100.00;94490.47;5006408;28;20530;-77
2023/10/15 03:31:45;;;;;;;11.57;6.80;;;;;;;9.20;100.00;94494.81;5004852;28;20022;-77
2023/10/15 03:37:12;;;;;;;7.63;6.90;;;;;;;9.58;100.00;94490.44;5004658;28;20169;-78
2023/10/15 03:42:09;;;;;;;14.70;7.60;;;;;;;9.45;100.00;94486.69;5006496;28;20092;-77
2023/10/15 03:44:37;;;;;;;43.70;35.10;;;;;;;9.39;100.00;94486.59;5003348;28;20026;-77
2023/10/15 03:47:05;;;;;;;57.50;46.15;;;;;;;9.47;100.00;94483.94;5017194;28;20341;-77
2023/10/15 03:49:32;;;;;;;48.70;39.93;;;;;;;9.46;100.00;94484.91;5003816;28;20383;-77
2023/10/15 03:51:58;;;;;;;31.83;22.98;;;;;;;9.36;100.00;94481.78;5005056;28;20022;-77
2023/10/15 03:54:23;;;;;;;25.42;20.75;;;;;;;9.16;100.00;94488.38;5002879;28;20628;-77
2023/10/15 03:56:51;;;;;;;26.27;19.10;;;;;;;9.37;100.00;94484.19;5002742;28;20519;-77
2023/10/15 03:59:17;;;;;;;22.73;17.35;;;;;;;9.37;100.00;94478.22;4987198;28;20391;-77
2023/10/15 04:01:49;;;;;;;19.20;15.48;;;;;;;9.32;100.00;94472.75;5003488;28;20252;-77
2023/10/15 04:04:16;;;;;;;20.95;9.85;;;;;;;9.06;100.00;94477.47;5005400;28;20034;-77
2023/10/15 04:06:42;;;;;;;16.75;9.25;;;;;;;9.03;100.00;94478.63;5003432;28;20600;-77
2023/10/15 04:11:42;;;;;;;13.75;8.43;;;;;;;8.93;100.00;94476.28;5018038;28;20034;-77
2023/10/15 04:14:32;;;;;;;11.60;8.52;;;;;;;8.91;100.00;94480.03;4987205;28;20484;-77
2023/10/15 04:16:58;;;;;;;9.07;8.15;;;;;;;8.96;100.00;94478.53;4992131;28;20109;-77
2023/10/15 04:19:26;;;;;;;10.65;8.93;;;;;;;8.93;100.00;94480.66;5002667;28;20116;-77
2023/10/15 04:21:53;;;;;;;15.38;13.23;;;;;;;8.94;100.00;94484.84;5004719;28;20046;-77
2023/10/15 04:24:28;;;;;;;12.20;10.65;;;;;;;8.92;100.00;94486.81;4997453;28;20026;-77
2023/10/15 04:26:54;;;;;;;10.43;9.25;;;;;;;8.82;100.00;94487.03;5003996;28;20026;-77
2023/10/15 04:29:21;;;;;;;11.52;9.15;;;;;;;8.78;100.00;94488.34;4987585;28;20030;-77
2023/10/15 04:32:00;;;;;;;13.60;11.68;;;;;;;8.70;100.00;94490.97;4985270;28;20029;-77
2023/10/15 04:34:28;;;;;;;15.38;10.18;;;;;;;8.69;100.00;94489.38;4987957;28;20037;-77
2023/10/15 04:36:57;;;;;;;13.35;9.75;;;;;;;8.80;100.00;94491.53;4984548;28;20415;-77
2023/10/15 04:39:23;;;;;;;15.52;9.90;;;;;;;8.78;100.00;94488.34;4986819;28;20044;-77
2023/10/15 04:41:49;;;;;;;21.50;14.57;;;;;;;8.71;100.00;94495.16;4981724;28;20041;-77
2023/10/15 04:44:31;;;;;;;35.95;17.95;;;;;;;8.69;100.00;94496.31;4985818;28;20109;-77
2023/10/15 04:47:04;;;;;;;21.83;13.43;;;;;;;8.66;100.00;94502.63;4985079;28;20466;-77
2023/10/15 04:49:31;;;;;;;18.02;11.95;;;;;;;8.75;100.00;94501.59;5002353;28;20571;-77
2023/10/15 04:51:58;;;;;;;11.85;10.25;;;;;;;8.71;100.00;94505.47;4985514;28;20060;-77
2023/10/15 04:54:23;;;;;;;10.63;9.43;;;;;;;8.67;100.00;94500.84;5001573;28;20108;-77
2023/10/15 04:56:49;;;;;;;12.63;8.40;;;;;;;8.59;100.00;94498.28;4983836;28;20041;-77
2023/10/15 04:59:15;;;;;;;9.57;7.63;;;;;;;8.57;100.00;94493.31;5001818;28;20476;-76
2023/10/15 05:01:42;;;;;;;15.45;7.82;;;;;;;8.60;100.00;94502.50;5001202;28;20384;-77
2023/10/15 05:04:09;;;;;;;17.38;9.43;;;;;;;8.83;100.00;94493.00;5002237;28;20038;-76
2023/10/15 05:06:35;;;;;;;80.70;37.05;;;;;;;8.94;100.00;94484.84;5001709;28;20041;-77
2023/10/15 05:09:00;;;;;;;40.60;20.05;;;;;;;8.91;100.00;94496.31;5002446;28;20034;-77
2023/10/15 05:11:27;;;;;;;21.25;12.23;;;;;;;8.94;100.00;94495.97;5002389;28;20014;-77
2023/10/15 05:13:53;;;;;;;30.95;16.08;;;;;;;9.08;100.00;94496.22;4985935;28;20026;-77
2023/10/15 05:16:19;;;;;;;23.13;13.35;;;;;;;9.27;100.00;94490.56;5000956;28;20041;-77
2023/10/15 05:18:47;;;;;;;25.00;13.63;;;;;;;9.40;100.00;94483.84;5001808;28;20022;-77
2023/10/15 05:21:13;;;;;;;15.65;10.95;;;;;;;9.66;100.00;94501.53;4985287;28;20105;-77
2023/10/15 05:23:38;;;;;;;16.20;12.10;;;;;;;9.81;100.00;94494.59;5002087;28;20101;-77
2023/10/15 05:26:04;;;;;;;17.80;9.57;;;;;;;10.43;100.00;94492.47;5004453;28;20524;-77
2023/10/15 05:28:31;;;;;;;13.77;9.95;;;;;;;10.74;100.00;94479.25;5002299;28;20451;-77
2023/10/15 05:30:58;;;;;;;10.02;7.60;;;;;;;10.84;100.00;94472.00;4988843;28;20074;-79
2023/10/15 05:33:23;;;;;;;12.57;10.75;;;;;;;11.15;100.00;94471.69;5004890;28;20095;-77
2023/10/15 05:35:52;;;;;;;24.27;16.77;;;;;;;11.15;100.00;94473.47;5005165;28;20073;-77
2023/10/15 05:38:17;;;;;;;20.00;15.93;;;;;;;11.20;100.00;94479.72;4985934;28;20038;-77
2023/10/15 05:40:46;;;;;;;16.80;14.95;;;;;;;11.33;100.00;94468.66;4986138;28;20342;-77
2023/10/15 05:43:11;;;;;;;21.08;16.90;;;;;;;11.60;100.00;94476.44;4987895;28;20044;-77
2023/10/15 05:45:37;;;;;;;25.77;18.15;;;;;;;11.76;100.00;94466.78;5002466;28;20018;-78
2023/10/15 05:48:03;;;;;;;17.13;13.13;;;;;;;12.06;100.00;94473.38;4987433;28;20117;-78
2023/10/15 05:50:28;;;;;;;15.73;10.10;;;;;;;12.24;100.00;94467.66;4996720;28;20112;-77
2023/10/15 05:52:54;;;;;;;13.25;9.15;;;;;;;12.44;100.00;94466.75;4999171;28;20109;-77
2023/10/15 05:55:19;;;;;;;14.23;8.85;;;;;;;12.60;100.00;94456.03;4985214;28;20052;-77
2023/10/15 05:57:46;;;;;;;11.95;8.18;;;;;;;12.76;100.00;94449.69;5001747;28;20029;-78
2023/10/15 06:00:18;;;;;;;10.40;9.27;;;;;;;13.17;100.00;94452.97;5001405;28;20036;-77
2023/10/15 06:02:50;;;;;;;9.18;7.22;;;;;;;13.67;100.00;94456.00;4998623;28;20030;-78
2023/10/15 06:05:16;;;;;;;11.45;9.10;;;;;;;13.94;100.00;94454.13;4982804;28;20026;-78
2023/10/15 06:07:42;;;;;;;11.05;7.63;;;;;;;14.95;100.00;94458.59;4998413;28;20044;-82
2023/10/15 06:10:11;;;;;;;10.75;7.25;;;;;;;14.59;100.00;94455.75;4982089;28;20037;-78
2023/10/15 06:12:40;;;;;;;13.13;6.32;;;;;;;14.52;100.00;94441.97;4999165;28;20122;-78
2023/10/15 06:15:07;;;;;;;9.20;7.50;;;;;;;14.75;100.00;94447.47;4981781;28;20030;-79
2023/10/15 06:17:33;;;;;;;15.70;6.88;;;;;;;15.27;100.00;94443.75;4998540;28;20077;-80
2023/10/15 06:20:12;;;;;;;11.02;5.82;;;;;;;15.39;100.00;94438.63;4980378;28;20030;-80
2023/10/15 06:22:41;;;;;;;8.60;5.70;;;;;;;15.77;100.00;94432.28;5000255;28;20108;-79
2023/10/15 06:25:08;;;;;;;11.57;5.65;;;;;;;16.47;97.39;94424.91;4997864;28;20034;-81
2023/10/15 06:27:37;;;;;;;11.25;5.85;;;;;;;16.30;98.19;94416.88;4982336;28;20052;-80
2023/10/15 06:30:14;;;;;;;15.20;5.05;;;;;;;16.56;96.55;94425.47;4980555;28;20030;-80
2023/10/15 06:32:44;;;;;;;9.45;5.70;;;;;;;17.00;92.31;94424.25;4982405;28;20459;-78
2023/10/15 06:35:14;;;;;;;8.13;4.97;;;;;;;18.58;84.89;94420.56;4999693;28;20037;-78
2023/10/15 06:37:40;;;;;;;9.15;5.15;;;;;;;20.80;72.31;94418.78;4997919;28;20370;-76
2023/10/15 06:40:08;;;;;;;7.07;5.15;;;;;;;22.33;60.94;94413.72;4981582;28;20124;-77
2023/10/15 06:42:35;;;;;;;7.47;4.95;;;;;;;21.14;66.34;94411.50;4980709;28;20026;-77
2023/10/15 06:45:02;;;;;;;8.48;4.90;;;;;;;21.18;67.78;94415.25;4981860;28;20022;-77
2023/10/15 06:47:29;;;;;;;9.93;4.80;;;;;;;24.03;53.04;94411.69;4998518;28;20494;-77
2023/10/15 06:49:56;;;;;;;8.45;4.75;;;;;;;26.23;46.95;94398.59;4981038;28;20477;-77
2023/10/15 06:52:22;;;;;;;6.60;4.97;;;;;;;26.23;46.36;94404.69;5000014;28;20026;-76
2023/10/15 06:54:48;;;;;;;9.25;5.03;;;;;;;26.48;45.33;94404.41;4998057;28;20467;-77
2023/10/15 06:57:16;;;;;;;8.27;4.60;;;;;;;27.21;43.11;94404.03;4993469;28;20041;-78
2023/10/15 06:59:42;;;;;;;7.63;5.43;;;;;;;27.34;42.21;94392.69;4998032;28;20034;-76
2023/10/15 07:02:08;;;;;;;8.20;5.30;;;;;;;27.51;41.49;94395.66;4975425;28;20041;-77
2023/10/15 07:04:33;;;;;;;8.73;5.35;;;;;;;28.31;39.46;94390.06;4998233;28;20018;-77
2023/10/15 07:06:59;;;;;;;10.57;5.45;;;;;;;28.87;39.13;94395.09;4998648;28;20033;-77
2023/10/15 07:09:24;;;;;;;7.63;4.75;;;;;;;27.94;39.16;94395.47;4999038;28;20112;-77
2023/10/15 07:11:50;;;;;;;10.10;4.75;;;;;;;27.14;41.28;94391.09;4997602;28;20041;-76
2023/10/15 07:14:15;;;;;;;7.55;4.97;;;;;;;27.46;40.51;94390.41;4999258;28;20049;-77
2023/10/15 07:16:41;;;;;;;7.88;4.40;;;;;;;29.00;38.44;94391.63;4997396;28;20037;-77
2023/10/15 07:19:06;;;;;;;8.05;5.13;;;;;;;28.82;38.27;94391.75;4999463;28;20077;-79
2023/10/15 07:21:32;;;;;;;7.53;4.60;;;;;;;26.98;41.82;94389.72;4997667;28;20101;-77
2023/10/15 07:23:58;;;;;;;7.35;5.00;;;;;;;25.50;45.44;94380.88;4981813;28;20034;-77
2023/10/15 07:26:24;;;;;;;6.68;4.72;;;;;;;23.81;50.25;94390.03;4980418;28;20108;-78
2023/10/15 07:28:50;;;;;;;11.43;5.28;;;;;;;23.18;52.71;94386.84;4981378;28;20100;-77
2023/10/15 07:31:16;;;;;;;8.57;5.63;;;;;;;22.96;54.76;94388.88;4998683;28;20116;-77
2023/10/15 07:33:42;;;;;;;7.20;4.90;;;;;;;22.47;56.52;94381.34;4982550;28;20080;-77
2023/10/15 07:36:07;;;;;;;12.20;5.93;;;;;;;22.43;58.00;94376.81;4984958;28;20026;-78
2023/10/15 07:38:33;;;;;;;16.17;5.53;;;;;;;22.24;60.17;94376.47;5001374;28;20494;-77
2023/10/15 07:41:00;;;;;;;10.90;4.38;;;;;;;22.33;58.95;94372.28;5002907;28;20030;-77
2023/10/15 07:43:25;;;;;;;8.68;4.88;;;;;;;23.37;55.36;94374.69;4982939;28;20033;-77
2023/10/15 07:45:52;;;;;;;9.38;5.25;;;;;;;26.15;46.13;94360.13;4984796;28;20064;-76
2023/10/15 07:48:18;;;;;;;9.25;4.43;;;;;;;26.49;42.35;94368.03;5001790;28;20108;-76
2023/10/15 07:50:45;;;;;;;9.32;5.00;;;;;;;27.53;41.41;94366.88;5001420;28;20018;-77
2023/10/15 07:53:11;;;;;;;6.25;4.10;;;;;;;27.42;41.38;94354.75;5001854;28;20145;-77
2023/10/15 07:55:37;;;;;;;8.68;4.32;;;;;;;28.85;38.75;94356.47;4983055;28;20037;-77
2023/10/15 07:58:03;;;;;;;7.90;4.10;;;;;;;28.26;39.42;94352.84;5002665;28;20341;-79
2023/10/15 08:00:31;;;;;;;11.85;4.70;;;;;;;28.70;38.02;94353.06;5000328;28;20037;-78
2023/10/15 08:03:00;;;;;;;9.52;4.00;;;;;;;28.91;37.83;94356.06;4984236;28;20157;-78
2023/10/15 08:05:26;;;;;;;9.27;4.22;;;;;;;28.29;37.61;94346.91;4978186;28;20816;-78
2023/10/15 08:07:52;;;;;;;8.82;5.00;;;;;;;28.31;38.28;94346.63;4983626;28;20036;-78
2023/10/15 08:10:20;;;;;;;11.02;4.38;;;;;;;28.66;38.45;94338.75;4996450;28;20097;-77
2023/10/15 08:12:50;;;;;;;7.47;4.30;;;;;;;28.50;37.86;94339.31;5000142;28;20591;-79
2023/10/15 08:15:16;;;;;;;9.70;4.07;;;;;;;28.51;38.37;94325.69;5001965;28;20820;-78
2023/10/15 08:17:42;;;;;;;7.00;4.20;;;;;;;29.01;37.99;94328.38;4982416;28;20045;-78
2023/10/15 08:20:09;;;;;;;12.95;5.65;;;;;;;28.74;37.29;94338.03;5002249;28;20022;-78
2023/10/15 08:22:40;;;;;;;6.80;4.03;;;;;;;28.78;37.69;94335.56;5000999;28;20042;-79
2023/10/15 08:25:13;;;;;;;11.57;4.05;;;;;;;28.96;38.14;94331.19;4983781;28;20026;-78
2023/10/15 08:27:44;;;;;;;11.10;4.47;;;;;;;28.98;36.51;94327.13;4984836;28;20492;-79
2023/10/15 08:30:12;;;;;;;5.28;4.28;;;;;;;29.13;36.41;94329.44;4982913;28;20049;-78
2023/10/15 08:32:44;;;;;;;9.60;3.97;;;;;;;28.43;37.70;94334.38;5001760;28;20030;-81
2023/10/15 08:35:10;;;;;;;9.95;4.20;;;;;;;29.16;37.13;94320.03;4999912;28;20030;-80
2023/10/15 08:37:40;;;;;;;8.57;4.00;;;;;;;29.09;37.69;94320.44;4983871;28;20091;-79
2023/10/15 08:40:06;;;;;;;7.30;4.20;;;;;;;29.04;37.83;94314.44;4983586;28;20057;-78
2023/10/15 08:42:42;;;;;;;7.10;4.32;;;;;;;28.74;37.58;94319.34;4982594;28;20482;-79
2023/10/15 08:45:08;;;;;;;7.95;4.25;;;;;;;28.57;37.89;94313.84;4982499;28;20476;-78
2023/10/15 08:47:35;;;;;;;9.82;4.07;;;;;;;28.53;36.96;94314.72;4981843;28;20526;-78
2023/10/15 08:50:02;;;;;;;9.83;3.77;;;;;;;28.63;38.46;94310.00;4984131;28;20029;-79
2023/10/15 08:52:28;;;;;;;9.27;4.20;;;;;;;28.59;37.69;94298.34;4982086;28;20041;-82
2023/10/15 08:54:54;;;;;;;6.03;4.15;;;;;;;28.51;38.35;94301.69;4983624;28;20485;-80
2023/10/15 08:57:21;;;;;;;5.35;3.65;;;;;;;27.97;38.83;94294.47;4982599;28;20133;-81
2023/10/15 08:59:47;;;;;;;12.23;4.85;;;;;;;27.89;39.36;94297.03;4982882;28;20026;-78
2023/10/15 09:02:15;;;;;;;7.63;3.60;;;;;;;27.94;39.46;94291.59;4965117;28;20026;-79
2023/10/15 09:04:41;;;;;;;5.97;3.83;;;;;;;28.14;38.68;94304.59;4981636;28;20503;-79
2023/10/15 09:07:06;;;;;;;8.85;4.53;;;;;;;28.27;39.24;94299.25;5001137;28;20040;-79
2023/10/15 09:09:33;;;;;;;4.97;4.03;;;;;;;27.89;39.81;94300.50;4981872;28;20022;-79
2023/10/15 09:11:59;;;;;;;7.18;4.00;;;;;;;27.80;39.70;94293.50;4983527;28;20030;-79
2023/10/15 09:14:38;;;;;;;5.05;3.78;;;;;;;27.45;40.22;94294.91;4995089;28;20038;-79
2023/10/15 09:17:03;;;;;;;17.05;4.45;;;;;;;27.39;40.20;94288.81;4996088;28;20045;-81
2023/10/15 09:19:31;;;;;;;17.15;4.70;;;;;;;26.58;40.53;94282.06;5002217;28;20018;-77
2023/10/15 09:21:57;;;;;;;16.27;4.70;;;;;;;27.13;40.71;94285.03;5000932;28;20038;-79
2023/10/15 09:24:22;;;;;;;9.80;3.72;;;;;;;26.75;42.19;94286.09;4983032;28;20414;-81
2023/10/15 09:26:48;;;;;;;9.18;4.10;;;;;;;26.99;42.52;94284.97;4999322;28;20038;-79
2023/10/15 09:29:19;;;;;;;9.23;3.55;;;;;;;26.92;41.97;94279.22;5000329;28;20947;-80
2023/10/15 09:31:45;;;;;;;7.55;4.47;;;;;;;26.71;42.42;94288.53;4981253;28;20492;-79
2023/10/15 09:34:11;;;;;;;10.00;5.90;;;;;;;26.67;42.55;94280.34;4984406;28;20034;-82
2023/10/15 09:36:38;;;;;;;8.30;4.97;;;;;;;26.70;42.42;94276.31;4982671;28;20017;-80
2023/10/15 09:39:12;;;;;;;9.40;3.92;;;;;;;26.81;43.09;94279.66;4982495;28;20495;-78
2023/10/15 09:41:37;;;;;;;7.13;4.30;;;;;;;26.88;42.61;94272.88;4999381;28;20115;-79
2023/10/15 09:44:06;;;;;;;6.30;4.30;;;;;;;26.80;43.30;94270.06;5000318;28;20083;-79
2023/10/15 09:46:33;;;;;;;6.88;4.00;;;;;;;26.99;42.55;94266.34;4983928;28;20116;-81
2023/10/15 09:48:59;;;;;;;4.68;3.63;;;;;;;27.33;42.14;94262.59;4999930;28;20043;-78
2023/10/15 09:51:25;;;;;;;5.40;3.90;;;;;;;27.58;41.14;94260.31;5001720;28;20056;-79
2023/10/15 09:53:52;;;;;;;5.28;4.00;;;;;;;27.19;42.48;94262.56;4998211;28;20165;-79
2023/10/15 09:56:19;;;;;;;18.00;5.50;;;;;;;27.35;42.21;94257.78;4998968;28;20041;-80
2023/10/15 09:58:44;;;;;;;9.30;4.88;;;;;;;27.35;42.37;94247.94;4983672;28;20037;-79
2023/10/15 10:01:25;;;;;;;12.05;5.65;;;;;;;26.59;43.43;94235.78;4982797;28;20030;-84
2023/10/15 10:04:24;;;;;;;10.55;4.82;;;;;;;27.05;42.90;94245.78;5001734;28;20030;-78
2023/10/15 10:06:58;;;;;;;5.80;4.78;;;;;;;27.01;43.65;94236.78;4977909;28;20037;-80
2023/10/15 10:09:48;;;;;;;10.05;4.60;;;;;;;26.83;43.95;94238.41;5000667;28;20391;-81
2023/10/15 10:12:19;;;;;;;7.13;5.00;;;;;;;26.91;44.02;94235.06;5002015;28;20037;-82
2023/10/15 10:15:04;;;;;;;8.82;5.22;;;;;;;26.97;43.20;94233.16;5000156;28;20427;-82
2023/10/15 10:17:31;;;;;;;9.13;5.35;;;;;;;26.49;44.61;94227.97;4976947;28;20030;-83
2023/10/15 10:19:56;;;;;;;8.25;5.25;;;;;;;27.11;43.87;94231.31;4983615;28;20034;-82
2023/10/15 10:22:28;;;;;;;7.60;5.05;;;;;;;27.13;43.07;94215.88;4982602;28;20033;-81
2023/10/15 10:24:55;;;;;;;12.68;5.30;;;;;;;26.55;44.28;94194.91;4984551;28;20079;-84
2023/10/15 10:27:20;;;;;;;11.48;5.18;;;;;;;26.70;44.50;94197.38;4982044;28;20038;-82
2023/10/15 10:29:53;;;;;;;12.45;5.60;;;;;;;26.69;44.37;94205.63;4983959;28;20037;-82
2023/10/15 10:32:21;;;;;;;11.68;5.55;;;;;;;26.49;44.96;94205.94;4983159;28;20137;-83
2023/10/15 10:35:18;;;;;;;9.02;5.35;;;;;;;26.40;45.92;94191.69;4983621;28;20022;-81
2023/10/15 10:38:06;;;;;;;15.53;5.90;;;;;;;26.12;45.87;94194.19;4982813;28;20745;-82
2023/10/15 10:41:02;;;;;;;13.88;5.35;;;;;;;26.21;46.05;94186.41;4999455;28;20073;-85
2023/10/15 10:43:28;;;;;;;10.65;5.40;;;;;;;26.71;44.71;94182.22;4984910;28;20550;-80
2023/10/15 10:45:55;;;;;;;13.85;5.97;;;;;;;26.63;45.22;94182.88;4983641;28;20034;-82
2023/10/15 10:48:25;;;;;;;12.52;5.82;;;;;;;26.07;45.55;94180.19;4999912;28;20026;-83
2023/10/15 10:51:21;;;;;;;10.13;5.15;;;;;;;26.15;46.30;94174.22;4983996;28;20084;-83
2023/10/15 10:53:55;;;;;;;8.35;5.35;;;;;;;25.79;46.78;94173.09;4951350;28;20050;-83
2023/10/15 10:56:44;;;;;;;9.10;4.80;;;;;;;25.96;47.03;94166.25;4995019;28;20164;-84
2023/10/15 10:59:12;;;;;;;9.05;6.13;;;;;;;26.02;46.83;94159.81;5000886;28;20046;-82
2023/10/15 11:01:42;;;;;;;10.07;5.35;;;;;;;25.83;47.11;94155.53;4980022;28;20037;-83
2023/10/15 11:04:08;;;;;;;20.98;6.03;;;;;;;25.84;47.00;94159.78;4981067;28;21010;-85
2023/10/15 11:06:39;;;;;;;12.68;6.32;;;;;;;25.83;46.99;94156.34;4965019;28;20031;-84
2023/10/15 11:09:15;;;;;;;14.23;6.30;;;;;;;26.22;46.81;94150.81;4959869;28;20567;-81
2023/10/15 11:11:51;;;;;;;12.82;5.50;;;;;;;26.04;47.55;94135.63;4969330;28;20770;-85
2023/10/15 11:14:18;;;;;;;22.58;6.07;;;;;;;25.46;47.50;94138.44;4994912;28;20021;-83
2023/10/15 11:16:45;;;;;;;12.50;5.55;;;;;;;25.80;47.22;94140.19;4976357;28;20077;-85
2023/10/15 11:19:17;;;;;;;16.25;5.57;;;;;;;25.86;46.92;94134.53;5000813;28;20041;-81
2023/10/15 11:21:43;;;;;;;13.40;5.55;;;;;;;25.60;46.55;94127.97;5005723;28;20026;-84
2023/10/15 11:24:09;;;;;;;12.55;5.80;;;;;;;25.66;46.80;94124.16;4970429;28;20080;-84
2023/10/15 11:26:41;;;;;;;15.13;6.15;;;;;;;25.84;46.55;94117.31;5004824;28;20046;-81
2023/10/15 11:29:14;;;;;;;11.38;5.15;;;;;;;25.91;46.18;94123.06;5004449;28;20037;-83
2023/10/15 11:31:45;;;;;;;12.52;5.30;;;;;;;25.64;45.94;94126.31;5003174;28;20036;-78
2023/10/15 11:34:21;;;;;;;8.90;5.57;;;;;;;25.74;47.13;94125.41;4971284;28;20034;-78
2023/10/15 11:36:51;;;;;;;9.43;5.82;;;;;;;25.62;47.19;94123.19;4985846;28;20491;-83
2023/10/15 11:39:29;;;;;;;8.07;5.20;;;;;;;25.76;46.91;94109.97;4970708;28;20612;-80
2023/10/15 11:41:58;;;;;;;;;;;;;;;25.87;45.00;94116.75;4988691;28;20029;-81
2023/10/15 11:44:30;;;;;;;14.20;5.40;;;;;;;25.66;43.92;94110.91;4985452;28;20024;-80
2023/10/15 11:46:56;;;;;;;6.20;4.32;;;;;;;25.84;44.13;94106.69;4999738;28;20029;-78
2023/10/15 11:49:25;;;;;;;12.07;4.88;;;;;;;25.82;45.33;94099.00;4984498;28;20049;-79
2023/10/15 11:51:55;;;;;;;12.20;5.00;;;;;;;25.62;45.59;94099.31;4987095;28;20072;-81